Map

Track Data

SID SEASON NUMBER BASIN SUBBASIN NAME ISO_TIME NATURE LAT LON WMO_WIND WMO_PRES WMO_AGENCY TRACK_TYPE DIST2LAND LANDFALL IFLAG USA_AGENCY USA_ATCF_ID USA_LAT USA_LON USA_RECORD USA_STATUS USA_WIND USA_PRES USA_SSHS USA_R34_NE USA_R34_SE USA_R34_SW USA_R34_NW USA_R50_NE USA_R50_SE USA_R50_SW USA_R50_NW USA_R64_NE USA_R64_SE USA_R64_SW USA_R64_NW USA_POCI USA_ROCI USA_RMW USA_EYE TOKYO_LAT TOKYO_LON TOKYO_GRADE TOKYO_WIND TOKYO_PRES TOKYO_R50_DIR TOKYO_R50_LONG TOKYO_R50_SHORT TOKYO_R30_DIR TOKYO_R30_LONG TOKYO_R30_SHORT TOKYO_LAND CMA_LAT CMA_LON CMA_CAT CMA_WIND CMA_PRES HKO_LAT HKO_LON HKO_CAT HKO_WIND HKO_PRES NEWDELHI_LAT NEWDELHI_LON NEWDELHI_GRADE NEWDELHI_WIND NEWDELHI_PRES NEWDELHI_CI NEWDELHI_DP NEWDELHI_POCI REUNION_LAT REUNION_LON REUNION_TYPE REUNION_WIND REUNION_PRES REUNION_TNUM REUNION_CI REUNION_RMW REUNION_R34_NE REUNION_R34_SE REUNION_R34_SW REUNION_R34_NW REUNION_R50_NE REUNION_R50_SE REUNION_R50_SW REUNION_R50_NW REUNION_R64_NE REUNION_R64_SE REUNION_R64_SW REUNION_R64_NW BOM_LAT BOM_LON BOM_TYPE BOM_WIND BOM_PRES BOM_TNUM BOM_CI BOM_RMW BOM_R34_NE BOM_R34_SE BOM_R34_SW BOM_R34_NW BOM_R50_NE BOM_R50_SE BOM_R50_SW BOM_R50_NW BOM_R64_NE BOM_R64_SE BOM_R64_SW BOM_R64_NW BOM_ROCI BOM_POCI BOM_EYE BOM_POS_METHOD BOM_PRES_METHOD NADI_LAT NADI_LON NADI_CAT NADI_WIND NADI_PRES WELLINGTON_LAT WELLINGTON_LON WELLINGTON_WIND WELLINGTON_PRES DS824_LAT DS824_LON DS824_STAGE DS824_WIND DS824_PRES TD9636_LAT TD9636_LON TD9636_STAGE TD9636_WIND TD9636_PRES TD9635_LAT TD9635_LON TD9635_WIND TD9635_PRES TD9635_ROCI NEUMANN_LAT NEUMANN_LON NEUMANN_CLASS NEUMANN_WIND NEUMANN_PRES MLC_LAT MLC_LON MLC_CLASS MLC_WIND MLC_PRES USA_GUST BOM_GUST BOM_GUST_PER REUNION_GUST REUNION_GUST_PER USA_SEAHGT USA_SEARAD_NE USA_SEARAD_SE USA_SEARAD_SW USA_SEARAD_NW STORM_SPEED STORM_DIR
1903153N11127 1903 25 WP MM NOT_NAMED 1903-06-01 16:00:00 NR 10.7000 127.200 main 156 122 __________O___ -1 10.7000 127.200 7 9 283
1903153N11127 1903 25 WP MM NOT_NAMED 1903-06-01 18:00:00 NR 10.7703 126.900 main 122 77 __________P___ -1 10.7703 126.900 7 9 283
1903153N11127 1903 25 WP MM NOT_NAMED 1903-06-01 21:00:00 NR 10.8741 126.450 main 77 21 __________P___ -1 10.8741 126.450 7 9 283
1903153N11127 1903 25 WP MM NOT_NAMED 1903-06-02 00:00:00 NR 10.9745 126.000 main 21 0 __________P___ -1 10.9745 126.000 7 9 282
1903153N11127 1903 25 WP MM NOT_NAMED 1903-06-02 03:00:00 NR 11.0697 125.550 main 10 0 __________P___ -1 11.0697 125.550 7 9 282
1903153N11127 1903 25 WP MM NOT_NAMED 1903-06-02 04:00:00 NR 11.1000 125.400 main 0 0 __________O___ -1 11.1000 125.400 3 9 281
1903153N11127 1903 25 WP MM NOT_NAMED 1903-06-02 06:00:00 NR 11.1586 125.100 main 10 0 __________P___ -1 11.1586 125.100 3 9 281
1903153N11127 1903 25 WP MM NOT_NAMED 1903-06-02 09:00:00 NR 11.2466 124.650 main 0 0 __________P___ -1 11.2466 124.650 3 9 282
1903153N11127 1903 25 WP MM NOT_NAMED 1903-06-02 12:00:00 NR 11.3427 124.200 main 21 21 __________P___ -1 11.3427 124.200 3 9 283
1903153N11127 1903 25 WP MM NOT_NAMED 1903-06-02 15:00:00 NR 11.4565 123.750 main 40 40 __________P___ -1 11.4565 123.750 3 9 285
1903153N11127 1903 25 WP MM NOT_NAMED 1903-06-02 16:00:00 NR 11.5000 123.600 main 46 24 __________O___ -1 11.5000 123.600 4 9 288
1903153N11127 1903 25 WP MM NOT_NAMED 1903-06-02 18:00:00 NR 11.5966 123.313 main 24 15 __________P___ -1 11.5966 123.313 4 9 290
1903153N11127 1903 25 WP MM NOT_NAMED 1903-06-02 21:00:00 NR 11.7605 122.883 main 33 22 __________P___ -1 11.7605 122.883 4 9 292
1903153N11127 1903 25 WP MM NOT_NAMED 1903-06-03 00:00:00 NR 11.9419 122.439 main 22 22 __________P___ -1 11.9419 122.439 4 10 293
1903153N11127 1903 25 WP MM NOT_NAMED 1903-06-03 03:00:00 NR 12.1344 121.967 main 33 35 __________P___ -1 12.1344 121.967 4 10 292
1903153N11127 1903 25 WP MM NOT_NAMED 1903-06-03 04:00:00 NR 12.2000 121.800 main 44 0 __________O___ -1 12.2000 121.800 7 11 291
1903153N11127 1903 25 WP MM NOT_NAMED 1903-06-03 06:00:00 NR 12.3303 121.440 main 0 0 __________P___ -1 12.3303 121.440 7 12 290
1903153N11127 1903 25 WP MM NOT_NAMED 1903-06-03 09:00:00 NR 12.5321 120.868 main 10 10 __________P___ -1 12.5321 120.868 7 12 290
1903153N11127 1903 25 WP MM NOT_NAMED 1903-06-03 12:00:00 NR 12.7359 120.278 main 54 55 __________P___ -1 12.7359 120.278 7 12 289
1903153N11127 1903 25 WP MM NOT_NAMED 1903-06-03 15:00:00 NR 12.9355 119.691 main 85 85 __________P___ -1 12.9355 119.691 7 12 289
1903153N11127 1903 25 WP MM NOT_NAMED 1903-06-03 16:00:00 NR 13.0000 119.500 main 97 97 __________O___ -1 13.0000 119.500 7 11 288
1903153N11127 1903 25 WP MM NOT_NAMED 1903-06-03 18:00:00 NR 13.1169 119.133 main 134 134 __________P___ -1 13.1169 119.133 7 11 288
1903153N11127 1903 25 WP MM NOT_NAMED 1903-06-03 21:00:00 NR 13.2860 118.595 main 184 184 __________P___ -1 13.2860 118.595 7 11 288
1903153N11127 1903 25 WP MM NOT_NAMED 1903-06-04 00:00:00 NR 13.4559 118.073 main 238 249 __________P___ -1 13.4559 118.073 7 11 289
1903153N11127 1903 25 WP MM NOT_NAMED 1903-06-04 03:00:00 NR 13.6361 117.566 main 292 303 __________P___ -1 13.6361 117.566 7 10 290
1903153N11127 1903 25 WP MM NOT_NAMED 1903-06-04 04:00:00 NR 13.7000 117.400 main 315 315 __________O___ -1 13.7000 117.400 7 10 293
1903153N11127 1903 25 WP MM NOT_NAMED 1903-06-04 06:00:00 NR 13.8383 117.072 main 342 348 __________P___ -1 13.8383 117.072 7 10 295
1903153N11127 1903 25 WP MM NOT_NAMED 1903-06-04 09:00:00 NR 14.0585 116.592 main 383 383 __________P___ -1 14.0585 116.592 7 10 296
1903153N11127 1903 25 WP MM NOT_NAMED 1903-06-04 12:00:00 NR 14.2887 116.122 main 426 426 __________P___ -1 14.2887 116.122 7 10 297
1903153N11127 1903 25 WP MM NOT_NAMED 1903-06-04 15:00:00 NR 14.5224 115.656 main 460 466 __________P___ -1 14.5224 115.656 7 10 297
1903153N11127 1903 25 WP MM NOT_NAMED 1903-06-04 16:00:00 NR 14.6000 115.500 main 477 477 __________O___ -1 14.6000 115.500 7 10 296
1903153N11127 1903 25 WP MM NOT_NAMED 1903-06-04 18:00:00 NR 14.7471 115.186 main 504 500 __________P___ -1 14.7471 115.186 7 10 296
1903153N11127 1903 25 WP MM NOT_NAMED 1903-06-04 21:00:00 NR 14.9679 114.714 main 547 547 __________P___ -1 14.9679 114.714 7 10 296
1903153N11127 1903 25 WP MM NOT_NAMED 1903-06-05 00:00:00 NR 15.1917 114.241 main 547 510 __________P___ -1 15.1917 114.241 7 10 296
1903153N11127 1903 25 WP MM NOT_NAMED 1903-06-05 03:00:00 NR 15.4215 113.762 main 510 491 __________P___ -1 15.4215 113.762 7 10 297
1903153N11127 1903 25 WP MM NOT_NAMED 1903-06-05 04:00:00 NR 15.5000 113.600 main 491 455 __________O___ -1 15.5000 113.600 7 11 297
1903153N11127 1903 25 WP MM NOT_NAMED 1903-06-05 06:00:00 NR 15.6607 113.275 main 455 403 __________P___ -1 15.6607 113.275 7 11 297
1903153N11127 1903 25 WP MM NOT_NAMED 1903-06-05 09:00:00 NR 15.9083 112.781 main 403 344 __________P___ -1 15.9083 112.781 7 11 298
1903153N11127 1903 25 WP MM NOT_NAMED 1903-06-05 12:00:00 NR 16.1608 112.280 main 344 294 __________P___ -1 16.1608 112.280 7 11 298
1903153N11127 1903 25 WP MM NOT_NAMED 1903-06-05 15:00:00 NR 16.4153 111.771 main 294 272 __________P___ -1 16.4153 111.771 7 11 298
1903153N11127 1903 25 WP MM NOT_NAMED 1903-06-05 16:00:00 NR 16.5000 111.600 main 272 228 __________O___ -1 16.5000 111.600 7 11 296
1903153N11127 1903 25 WP MM NOT_NAMED 1903-06-05 18:00:00 NR 16.6641 111.240 main 228 180 __________P___ -1 16.6641 111.240 7 12 295
1903153N11127 1903 25 WP MM NOT_NAMED 1903-06-05 21:00:00 NR 16.9102 110.693 main 180 123 __________P___ -1 16.9102 110.693 7 11 296
1903153N11127 1903 25 WP MM NOT_NAMED 1903-06-06 00:00:00 NR 17.1590 110.158 main 123 89 __________P___ -1 17.1590 110.158 7 11 297
1903153N11127 1903 25 WP MM NOT_NAMED 1903-06-06 03:00:00 NR 17.4134 109.656 main 89 78 __________P___ -1 17.4134 109.656 7 11 299
1903153N11127 1903 25 WP MM NOT_NAMED 1903-06-06 04:00:00 NR 17.5000 109.500 main 78 64 __________O___ -1 17.5000 109.500 7 10 299
1903153N11127 1903 25 WP MM NOT_NAMED 1903-06-06 06:00:00 NR 17.6509 109.215 main 64 56 __________P___ -1 17.6509 109.215 7 9 301
1903153N11127 1903 25 WP MM NOT_NAMED 1903-06-06 09:00:00 NR 17.8834 108.826 main 59 45 __________P___ -1 17.8834 108.826 7 9 305
1903153N11127 1903 25 WP MM NOT_NAMED 1903-06-06 12:00:00 NR 18.1482 108.466 main 49 46 __________P___ -1 18.1482 108.466 7 9 311
1903153N11127 1903 25 WP MM NOT_NAMED 1903-06-06 15:00:00 NR 18.4734 108.117 main 63 63 __________P___ -1 18.4734 108.117 7 10 316
1903153N11127 1903 25 WP MM NOT_NAMED 1903-06-06 16:00:00 NR 18.6000 108.000 main 73 73 __________O___ -1 18.6000 108.000 3 11 321
1903153N11127 1903 25 WP MM NOT_NAMED 1903-06-06 18:00:00 NR 18.8842 107.761 main 94 100 __________P___ -1 18.8842 107.761 3 12 324
1903153N11127 1903 25 WP MM NOT_NAMED 1903-06-06 21:00:00 NR 19.3758 107.393 main 126 61 __________P___ -1 19.3758 107.393 3 13 326
1903153N11127 1903 25 WP MM NOT_NAMED 1903-06-07 00:00:00 NR 19.9239 107.015 main 61 10 __________P___ -1 19.9239 107.015 3 13 328
1903153N11127 1903 25 WP MM NOT_NAMED 1903-06-07 03:00:00 NR 20.5039 106.630 main 10 0 __________P___ -1 20.5039 106.630 3 14 328
1903153N11127 1903 25 WP MM NOT_NAMED 1903-06-07 04:00:00 NR 20.7000 106.500 main 0 __________O___ -1 20.7000 106.500 7 14 328

Digital Typhoon Data and Search

About IBTrACS Database

This database is a web-friendly format of International Best Track Archive for Climate Stewardship (IBTrACS), a global best track data archive curated by NOAA dating back to 1842.

Updated: 2021-12-01